sensor_id;sensor_type;location;lat;lon;timestamp;temperature;humidity
72905;DHT22;61048;52.162;4.516;2022-11-13T00:00:47;17.30;69.60
72905;DHT22;61048;52.162;4.516;2022-11-13T00:03:14;17.30;69.60
72905;DHT22;61048;52.162;4.516;2022-11-13T00:05:40;17.30;69.40
72905;DHT22;61048;52.162;4.516;2022-11-13T00:08:07;17.30;69.50
72905;DHT22;61048;52.162;4.516;2022-11-13T00:10:34;17.30;69.60
72905;DHT22;61048;52.162;4.516;2022-11-13T00:13:01;17.30;69.60
72905;DHT22;61048;52.162;4.516;2022-11-13T00:15:28;17.20;69.60
72905;DHT22;61048;52.162;4.516;2022-11-13T00:18:01;17.20;69.60
72905;DHT22;61048;52.162;4.516;2022-11-13T00:20:28;17.20;69.50
72905;DHT22;61048;52.162;4.516;2022-11-13T00:22:55;17.20;69.70
72905;DHT22;61048;52.162;4.516;2022-11-13T00:25:22;17.20;69.70
72905;DHT22;61048;52.162;4.516;2022-11-13T00:27:48;17.20;69.70
72905;DHT22;61048;52.162;4.516;2022-11-13T00:30:15;17.20;69.70
72905;DHT22;61048;52.162;4.516;2022-11-13T00:32:42;17.20;69.80
72905;DHT22;61048;52.162;4.516;2022-11-13T00:35:11;17.20;69.80
72905;DHT22;61048;52.162;4.516;2022-11-13T00:37:37;17.20;69.70
72905;DHT22;61048;52.162;4.516;2022-11-13T00:40:08;17.10;69.80
72905;DHT22;61048;52.162;4.516;2022-11-13T00:42:35;17.10;69.90
72905;DHT22;61048;52.162;4.516;2022-11-13T00:45:02;17.10;69.70
72905;DHT22;61048;52.162;4.516;2022-11-13T00:47:33;17.10;69.80
72905;DHT22;61048;52.162;4.516;2022-11-13T00:50:00;17.10;70.00
72905;DHT22;61048;52.162;4.516;2022-11-13T00:52:28;17.10;69.80
72905;DHT22;61048;52.162;4.516;2022-11-13T00:54:56;17.10;69.90
72905;DHT22;61048;52.162;4.516;2022-11-13T00:57:22;17.10;69.90
72905;DHT22;61048;52.162;4.516;2022-11-13T00:59:49;17.10;69.80
72905;DHT22;61048;52.162;4.516;2022-11-13T01:02:16;17.10;69.90
72905;DHT22;61048;52.162;4.516;2022-11-13T01:04:43;17.10;69.90
72905;DHT22;61048;52.162;4.516;2022-11-13T01:07:10;17.10;69.90
72905;DHT22;61048;52.162;4.516;2022-11-13T01:09:38;17.10;69.90
72905;DHT22;61048;52.162;4.516;2022-11-13T01:12:05;17.10;69.90
72905;DHT22;61048;52.162;4.516;2022-11-13T01:14:32;17.00;70.20
72905;DHT22;61048;52.162;4.516;2022-11-13T01:16:59;17.10;69.90
72905;DHT22;61048;52.162;4.516;2022-11-13T01:19:26;17.00;70.10
72905;DHT22;61048;52.162;4.516;2022-11-13T01:21:53;17.10;69.90
72905;DHT22;61048;52.162;4.516;2022-11-13T01:24:20;17.00;70.10
72905;DHT22;61048;52.162;4.516;2022-11-13T01:26:48;17.00;70.00
72905;DHT22;61048;52.162;4.516;2022-11-13T01:29:15;17.00;70.00
72905;DHT22;61048;52.162;4.516;2022-11-13T01:31:41;17.00;70.10
72905;DHT22;61048;52.162;4.516;2022-11-13T01:34:08;17.00;70.10
72905;DHT22;61048;52.162;4.516;2022-11-13T01:36:35;17.00;70.10
72905;DHT22;61048;52.162;4.516;2022-11-13T01:39:02;17.00;70.10
72905;DHT22;61048;52.162;4.516;2022-11-13T01:41:31;17.00;70.10
72905;DHT22;61048;52.162;4.516;2022-11-13T01:44:00;17.00;70.10
72905;DHT22;61048;52.162;4.516;2022-11-13T01:46:29;16.90;70.00
72905;DHT22;61048;52.162;4.516;2022-11-13T01:49:01;16.90;70.20
72905;DHT22;61048;52.162;4.516;2022-11-13T01:51:31;16.90;70.10
72905;DHT22;61048;52.162;4.516;2022-11-13T01:54:01;17.00;70.50
72905;DHT22;61048;52.162;4.516;2022-11-13T01:56:29;17.00;70.40
72905;DHT22;61048;52.162;4.516;2022-11-13T01:59:03;17.00;70.30
72905;DHT22;61048;52.162;4.516;2022-11-13T02:01:31;17.00;70.40
72905;DHT22;61048;52.162;4.516;2022-11-13T02:03:58;17.00;70.30
72905;DHT22;61048;52.162;4.516;2022-11-13T02:06:27;17.00;70.20
72905;DHT22;61048;52.162;4.516;2022-11-13T02:08:56;17.00;70.30
72905;DHT22;61048;52.162;4.516;2022-11-13T02:11:23;17.00;70.30
72905;DHT22;61048;52.162;4.516;2022-11-13T02:13:50;17.00;70.20
72905;DHT22;61048;52.162;4.516;2022-11-13T02:16:20;17.00;70.20
72905;DHT22;61048;52.162;4.516;2022-11-13T02:18:47;17.00;70.10
72905;DHT22;61048;52.162;4.516;2022-11-13T02:21:26;17.00;70.10
72905;DHT22;61048;52.162;4.516;2022-11-13T02:26:33;16.90;70.10
72905;DHT22;61048;52.162;4.516;2022-11-13T02:29:00;17.00;70.00
72905;DHT22;61048;52.162;4.516;2022-11-13T02:31:27;16.90;70.10
72905;DHT22;61048;52.162;4.516;2022-11-13T02:33:53;16.90;70.10
72905;DHT22;61048;52.162;4.516;2022-11-13T02:36:22;16.90;70.20
72905;DHT22;61048;52.162;4.516;2022-11-13T02:38:51;16.90;70.00
72905;DHT22;61048;52.162;4.516;2022-11-13T02:41:20;16.80;69.90
72905;DHT22;61048;52.162;4.516;2022-11-13T02:43:48;16.80;69.70
72905;DHT22;61048;52.162;4.516;2022-11-13T02:46:15;16.80;70.00
72905;DHT22;61048;52.162;4.516;2022-11-13T02:48:42;16.80;69.90
72905;DHT22;61048;52.162;4.516;2022-11-13T02:51:08;16.80;69.80
72905;DHT22;61048;52.162;4.516;2022-11-13T02:53:35;16.80;69.70
72905;DHT22;61048;52.162;4.516;2022-11-13T02:56:02;16.70;69.80
72905;DHT22;61048;52.162;4.516;2022-11-13T02:58:29;16.70;69.90
72905;DHT22;61048;52.162;4.516;2022-11-13T03:01:00;16.70;69.80
72905;DHT22;61048;52.162;4.516;2022-11-13T03:03:27;16.70;69.90
72905;DHT22;61048;52.162;4.516;2022-11-13T03:05:53;16.70;69.90
72905;DHT22;61048;52.162;4.516;2022-11-13T03:08:20;16.70;69.90
72905;DHT22;61048;52.162;4.516;2022-11-13T03:10:48;16.70;69.80
72905;DHT22;61048;52.162;4.516;2022-11-13T03:13:15;16.70;69.90
72905;DHT22;61048;52.162;4.516;2022-11-13T03:15:42;16.70;69.90
72905;DHT22;61048;52.162;4.516;2022-11-13T03:18:11;16.70;70.00
72905;DHT22;61048;52.162;4.516;2022-11-13T03:20:40;16.70;69.80
72905;DHT22;61048;52.162;4.516;2022-11-13T03:23:07;16.70;69.90
72905;DHT22;61048;52.162;4.516;2022-11-13T03:25:33;16.70;70.00
72905;DHT22;61048;52.162;4.516;2022-11-13T03:28:00;16.60;69.90
72905;DHT22;61048;52.162;4.516;2022-11-13T03:30:27;16.60;70.10
72905;DHT22;61048;52.162;4.516;2022-11-13T03:32:54;16.60;69.90
72905;DHT22;61048;52.162;4.516;2022-11-13T03:35:23;16.60;70.00
72905;DHT22;61048;52.162;4.516;2022-11-13T03:37:50;16.60;70.10
72905;DHT22;61048;52.162;4.516;2022-11-13T03:40:17;16.60;69.90
72905;DHT22;61048;52.162;4.516;2022-11-13T03:42:44;16.60;70.00
72905;DHT22;61048;52.162;4.516;2022-11-13T03:45:11;16.60;70.00
72905;DHT22;61048;52.162;4.516;2022-11-13T03:47:38;16.60;69.80
72905;DHT22;61048;52.162;4.516;2022-11-13T03:50:05;16.50;69.90
72905;DHT22;61048;52.162;4.516;2022-11-13T03:52:33;16.60;70.10
72905;DHT22;61048;52.162;4.516;2022-11-13T03:55:00;16.60;70.00
72905;DHT22;61048;52.162;4.516;2022-11-13T03:57:27;16.60;70.00
72905;DHT22;61048;52.162;4.516;2022-11-13T03:59:54;16.60;70.10
72905;DHT22;61048;52.162;4.516;2022-11-13T04:02:21;16.60;70.10
72905;DHT22;61048;52.162;4.516;2022-11-13T04:04:47;16.60;70.00
72905;DHT22;61048;52.162;4.516;2022-11-13T04:07:15;16.60;70.00
72905;DHT22;61048;52.162;4.516;2022-11-13T04:09:43;16.50;70.20
72905;DHT22;61048;52.162;4.516;2022-11-13T04:12:10;16.50;70.10
72905;DHT22;61048;52.162;4.516;2022-11-13T04:14:36;16.50;70.20
72905;DHT22;61048;52.162;4.516;2022-11-13T04:17:03;16.50;69.90
72905;DHT22;61048;52.162;4.516;2022-11-13T04:19:30;16.50;70.00
72905;DHT22;61048;52.162;4.516;2022-11-13T04:21:57;16.50;70.00
72905;DHT22;61048;52.162;4.516;2022-11-13T04:24:24;16.50;70.10
72905;DHT22;61048;52.162;4.516;2022-11-13T04:26:52;16.50;69.90
72905;DHT22;61048;52.162;4.516;2022-11-13T04:29:19;16.50;70.00
72905;DHT22;61048;52.162;4.516;2022-11-13T04:31:46;16.50;70.00
72905;DHT22;61048;52.162;4.516;2022-11-13T04:34:12;16.50;70.00
72905;DHT22;61048;52.162;4.516;2022-11-13T04:36:40;16.50;69.90
72905;DHT22;61048;52.162;4.516;2022-11-13T04:39:07;16.50;70.00
72905;DHT22;61048;52.162;4.516;2022-11-13T04:41:34;16.50;70.00
72905;DHT22;61048;52.162;4.516;2022-11-13T04:44:19;16.40;70.00
72905;DHT22;61048;52.162;4.516;2022-11-13T04:46:46;16.40;70.00
72905;DHT22;61048;52.162;4.516;2022-11-13T04:49:13;16.40;70.20
72905;DHT22;61048;52.162;4.516;2022-11-13T04:51:40;16.40;70.00
72905;DHT22;61048;52.162;4.516;2022-11-13T04:54:07;16.40;70.10
72905;DHT22;61048;52.162;4.516;2022-11-13T04:56:34;16.40;70.00
72905;DHT22;61048;52.162;4.516;2022-11-13T04:59:00;16.40;69.90
72905;DHT22;61048;52.162;4.516;2022-11-13T05:01:28;16.40;70.00
72905;DHT22;61048;52.162;4.516;2022-11-13T05:03:55;16.40;70.00
72905;DHT22;61048;52.162;4.516;2022-11-13T05:06:22;16.40;70.00
72905;DHT22;61048;52.162;4.516;2022-11-13T05:08:49;16.40;70.10
72905;DHT22;61048;52.162;4.516;2022-11-13T05:11:16;16.40;70.00
72905;DHT22;61048;52.162;4.516;2022-11-13T05:13:43;16.40;70.10
72905;DHT22;61048;52.162;4.516;2022-11-13T05:16:12;16.40;69.90
72905;DHT22;61048;52.162;4.516;2022-11-13T05:18:40;16.40;70.00
72905;DHT22;61048;52.162;4.516;2022-11-13T05:21:08;16.30;69.90
72905;DHT22;61048;52.162;4.516;2022-11-13T05:23:35;16.40;69.90
72905;DHT22;61048;52.162;4.516;2022-11-13T05:26:03;16.30;69.70
72905;DHT22;61048;52.162;4.516;2022-11-13T05:28:31;16.30;69.70
72905;DHT22;61048;52.162;4.516;2022-11-13T05:31:06;16.30;69.80
72905;DHT22;61048;52.162;4.516;2022-11-13T05:33:33;16.30;69.70
72905;DHT22;61048;52.162;4.516;2022-11-13T05:36:02;16.30;69.60
72905;DHT22;61048;52.162;4.516;2022-11-13T05:38:30;16.30;69.70
72905;DHT22;61048;52.162;4.516;2022-11-13T05:41:01;16.30;69.70
72905;DHT22;61048;52.162;4.516;2022-11-13T05:43:28;16.20;69.80
72905;DHT22;61048;52.162;4.516;2022-11-13T05:45:59;16.30;70.10
72905;DHT22;61048;52.162;4.516;2022-11-13T05:48:27;16.30;69.90
72905;DHT22;61048;52.162;4.516;2022-11-13T05:50:54;16.30;70.00
72905;DHT22;61048;52.162;4.516;2022-11-13T05:53:27;16.20;70.10
72905;DHT22;61048;52.162;4.516;2022-11-13T05:55:54;16.20;70.20
72905;DHT22;61048;52.162;4.516;2022-11-13T05:58:24;16.20;70.20
72905;DHT22;61048;52.162;4.516;2022-11-13T06:00:51;16.20;70.40
72905;DHT22;61048;52.162;4.516;2022-11-13T06:03:18;16.20;70.40
72905;DHT22;61048;52.162;4.516;2022-11-13T06:05:45;16.20;70.40
72905;DHT22;61048;52.162;4.516;2022-11-13T06:08:12;16.20;70.50
72905;DHT22;61048;52.162;4.516;2022-11-13T06:10:40;16.20;70.30
72905;DHT22;61048;52.162;4.516;2022-11-13T06:13:07;16.20;70.50
72905;DHT22;61048;52.162;4.516;2022-11-13T06:15:34;16.20;70.60
72905;DHT22;61048;52.162;4.516;2022-11-13T06:18:00;16.20;70.40
72905;DHT22;61048;52.162;4.516;2022-11-13T06:20:27;16.30;70.40
72905;DHT22;61048;52.162;4.516;2022-11-13T06:22:54;16.30;70.30
72905;DHT22;61048;52.162;4.516;2022-11-13T06:25:21;16.20;70.10
72905;DHT22;61048;52.162;4.516;2022-11-13T06:27:49;16.20;70.20
72905;DHT22;61048;52.162;4.516;2022-11-13T06:30:16;16.20;70.00
72905;DHT22;61048;52.162;4.516;2022-11-13T06:32:43;16.20;69.70
72905;DHT22;61048;52.162;4.516;2022-11-13T06:35:10;16.20;69.90
72905;DHT22;61048;52.162;4.516;2022-11-13T06:37:37;16.20;70.00
72905;DHT22;61048;52.162;4.516;2022-11-13T06:40:05;16.20;69.80
72905;DHT22;61048;52.162;4.516;2022-11-13T06:42:32;16.20;69.90
72905;DHT22;61048;52.162;4.516;2022-11-13T06:45:00;16.20;69.80
72905;DHT22;61048;52.162;4.516;2022-11-13T06:47:27;16.20;69.90
72905;DHT22;61048;52.162;4.516;2022-11-13T06:49:54;16.20;69.70
72905;DHT22;61048;52.162;4.516;2022-11-13T06:52:21;16.20;69.70
72905;DHT22;61048;52.162;4.516;2022-11-13T06:54:48;16.20;69.40
72905;DHT22;61048;52.162;4.516;2022-11-13T06:57:14;16.20;69.30
72905;DHT22;61048;52.162;4.516;2022-11-13T06:59:41;16.20;69.40
72905;DHT22;61048;52.162;4.516;2022-11-13T07:02:10;16.20;69.40
72905;DHT22;61048;52.162;4.516;2022-11-13T07:04:37;16.20;69.30
72905;DHT22;61048;52.162;4.516;2022-11-13T07:07:04;16.20;69.20
72905;DHT22;61048;52.162;4.516;2022-11-13T07:09:31;16.20;69.20
72905;DHT22;61048;52.162;4.516;2022-11-13T07:11:58;16.20;69.30
72905;DHT22;61048;52.162;4.516;2022-11-13T07:14:25;16.20;69.30
72905;DHT22;61048;52.162;4.516;2022-11-13T07:16:52;16.20;69.20
72905;DHT22;61048;52.162;4.516;2022-11-13T07:19:20;16.20;68.90
72905;DHT22;61048;52.162;4.516;2022-11-13T07:21:47;16.20;69.00
72905;DHT22;61048;52.162;4.516;2022-11-13T07:24:14;16.20;69.00
72905;DHT22;61048;52.162;4.516;2022-11-13T07:26:41;16.20;68.70
72905;DHT22;61048;52.162;4.516;2022-11-13T07:29:08;16.20;68.90
72905;DHT22;61048;52.162;4.516;2022-11-13T07:31:35;16.20;68.70
72905;DHT22;61048;52.162;4.516;2022-11-13T07:34:02;16.20;68.60
72905;DHT22;61048;52.162;4.516;2022-11-13T07:36:30;16.20;68.70
72905;DHT22;61048;52.162;4.516;2022-11-13T07:38:57;16.20;68.80
72905;DHT22;61048;52.162;4.516;2022-11-13T07:41:24;16.20;68.70
72905;DHT22;61048;52.162;4.516;2022-11-13T07:43:51;16.20;69.10
72905;DHT22;61048;52.162;4.516;2022-11-13T07:46:17;16.20;68.80
72905;DHT22;61048;52.162;4.516;2022-11-13T07:48:44;16.20;68.80
72905;DHT22;61048;52.162;4.516;2022-11-13T07:51:11;16.20;68.90
72905;DHT22;61048;52.162;4.516;2022-11-13T07:53:39;16.20;68.80
72905;DHT22;61048;52.162;4.516;2022-11-13T07:56:07;16.20;68.90
72905;DHT22;61048;52.162;4.516;2022-11-13T07:58:34;16.30;68.80
72905;DHT22;61048;52.162;4.516;2022-11-13T08:01:01;16.30;68.30
72905;DHT22;61048;52.162;4.516;2022-11-13T08:03:29;16.30;69.60
72905;DHT22;61048;52.162;4.516;2022-11-13T08:05:59;16.30;70.00
72905;DHT22;61048;52.162;4.516;2022-11-13T08:08:27;16.40;69.60
72905;DHT22;61048;52.162;4.516;2022-11-13T08:10:55;16.40;70.20
72905;DHT22;61048;52.162;4.516;2022-11-13T08:13:22;16.50;69.80
72905;DHT22;61048;52.162;4.516;2022-11-13T08:15:49;16.50;70.10
72905;DHT22;61048;52.162;4.516;2022-11-13T08:18:16;16.50;70.60
72905;DHT22;61048;52.162;4.516;2022-11-13T08:20:43;16.50;70.60
72905;DHT22;61048;52.162;4.516;2022-11-13T08:23:10;16.50;69.60
72905;DHT22;61048;52.162;4.516;2022-11-13T08:25:37;16.50;69.60
72905;DHT22;61048;52.162;4.516;2022-11-13T08:28:05;16.50;69.30
72905;DHT22;61048;52.162;4.516;2022-11-13T08:30:32;16.50;69.10
72905;DHT22;61048;52.162;4.516;2022-11-13T08:32:59;16.50;69.30
72905;DHT22;61048;52.162;4.516;2022-11-13T08:35:26;16.50;68.90
72905;DHT22;61048;52.162;4.516;2022-11-13T08:37:53;16.50;68.80
72905;DHT22;61048;52.162;4.516;2022-11-13T08:40:19;16.50;68.90
72905;DHT22;61048;52.162;4.516;2022-11-13T08:42:46;16.50;68.80
72905;DHT22;61048;52.162;4.516;2022-11-13T08:45:15;16.50;68.60
72905;DHT22;61048;52.162;4.516;2022-11-13T08:47:41;16.50;68.60
72905;DHT22;61048;52.162;4.516;2022-11-13T08:50:08;16.60;68.40
72905;DHT22;61048;52.162;4.516;2022-11-13T08:52:35;16.50;68.60
72905;DHT22;61048;52.162;4.516;2022-11-13T08:55:02;16.50;67.90
72905;DHT22;61048;52.162;4.516;2022-11-13T08:57:29;16.50;67.30
72905;DHT22;61048;52.162;4.516;2022-11-13T08:59:56;16.50;67.90
72905;DHT22;61048;52.162;4.516;2022-11-13T09:02:25;16.50;68.20
72905;DHT22;61048;52.162;4.516;2022-11-13T09:04:51;16.60;68.20
72905;DHT22;61048;52.162;4.516;2022-11-13T09:07:18;16.60;67.60
72905;DHT22;61048;52.162;4.516;2022-11-13T09:09:45;16.60;67.40
72905;DHT22;61048;52.162;4.516;2022-11-13T09:12:12;16.60;68.20
72905;DHT22;61048;52.162;4.516;2022-11-13T09:14:39;16.60;68.60
72905;DHT22;61048;52.162;4.516;2022-11-13T09:17:06;16.70;68.60
72905;DHT22;61048;52.162;4.516;2022-11-13T09:19:34;16.70;68.20
72905;DHT22;61048;52.162;4.516;2022-11-13T09:22:01;16.80;68.20
72905;DHT22;61048;52.162;4.516;2022-11-13T09:24:27;16.80;68.00
72905;DHT22;61048;52.162;4.516;2022-11-13T09:26:54;16.80;67.90
72905;DHT22;61048;52.162;4.516;2022-11-13T09:29:21;16.80;68.00
72905;DHT22;61048;52.162;4.516;2022-11-13T09:31:50;16.80;68.20
72905;DHT22;61048;52.162;4.516;2022-11-13T09:34:17;16.80;68.30
72905;DHT22;61048;52.162;4.516;2022-11-13T09:36:45;16.90;68.30
72905;DHT22;61048;52.162;4.516;2022-11-13T09:39:12;16.90;68.20
72905;DHT22;61048;52.162;4.516;2022-11-13T09:41:43;16.90;68.20
72905;DHT22;61048;52.162;4.516;2022-11-13T09:44:14;16.90;68.30
72905;DHT22;61048;52.162;4.516;2022-11-13T09:46:44;16.90;68.00
72905;DHT22;61048;52.162;4.516;2022-11-13T09:49:16;16.90;67.60
72905;DHT22;61048;52.162;4.516;2022-11-13T09:51:49;16.90;67.30
72905;DHT22;61048;52.162;4.516;2022-11-13T09:54:17;16.80;66.90
72905;DHT22;61048;52.162;4.516;2022-11-13T09:56:50;16.80;66.90
72905;DHT22;61048;52.162;4.516;2022-11-13T09:59:25;16.80;66.80
72905;DHT22;61048;52.162;4.516;2022-11-13T10:01:57;16.80;67.00
72905;DHT22;61048;52.162;4.516;2022-11-13T10:04:36;16.80;63.60
72905;DHT22;61048;52.162;4.516;2022-11-13T10:07:12;16.80;65.80
72905;DHT22;61048;52.162;4.516;2022-11-13T10:09:51;16.70;64.50
72905;DHT22;61048;52.162;4.516;2022-11-13T10:12:20;16.70;65.00
72905;DHT22;61048;52.162;4.516;2022-11-13T10:14:49;16.70;67.10
72905;DHT22;61048;52.162;4.516;2022-11-13T10:17:20;16.80;64.70
72905;DHT22;61048;52.162;4.516;2022-11-13T10:19:54;16.70;65.10
72905;DHT22;61048;52.162;4.516;2022-11-13T10:22:29;16.70;66.20
72905;DHT22;61048;52.162;4.516;2022-11-13T10:25:04;16.70;66.00
72905;DHT22;61048;52.162;4.516;2022-11-13T10:27:35;16.70;64.60
72905;DHT22;61048;52.162;4.516;2022-11-13T10:30:02;16.70;66.00
72905;DHT22;61048;52.162;4.516;2022-11-13T10:32:31;16.70;66.40
72905;DHT22;61048;52.162;4.516;2022-11-13T10:35:08;16.70;66.40
72905;DHT22;61048;52.162;4.516;2022-11-13T10:37:47;16.80;66.20
72905;DHT22;61048;52.162;4.516;2022-11-13T10:40:24;16.80;66.70
72905;DHT22;61048;52.162;4.516;2022-11-13T10:42:51;16.80;65.10
72905;DHT22;61048;52.162;4.516;2022-11-13T10:45:20;16.80;66.90
72905;DHT22;61048;52.162;4.516;2022-11-13T10:47:48;16.80;66.90
72905;DHT22;61048;52.162;4.516;2022-11-13T10:50:20;16.80;67.30
72905;DHT22;61048;52.162;4.516;2022-11-13T10:52:49;16.80;66.50
72905;DHT22;61048;52.162;4.516;2022-11-13T10:55:22;16.80;66.10
72905;DHT22;61048;52.162;4.516;2022-11-13T10:57:55;16.80;66.40
72905;DHT22;61048;52.162;4.516;2022-11-13T11:00:25;16.80;66.50
72905;DHT22;61048;52.162;4.516;2022-11-13T11:02:52;16.80;65.80
72905;DHT22;61048;52.162;4.516;2022-11-13T11:05:21;16.80;66.00
72905;DHT22;61048;52.162;4.516;2022-11-13T11:07:50;16.80;65.80
72905;DHT22;61048;52.162;4.516;2022-11-13T11:10:22;16.80;67.10
72905;DHT22;61048;52.162;4.516;2022-11-13T11:12:52;16.80;66.30
72905;DHT22;61048;52.162;4.516;2022-11-13T11:15:23;16.90;67.30
72905;DHT22;61048;52.162;4.516;2022-11-13T11:17:56;16.90;67.70
72905;DHT22;61048;52.162;4.516;2022-11-13T11:20:30;16.90;67.40
72905;DHT22;61048;52.162;4.516;2022-11-13T11:23:06;16.90;67.50
72905;DHT22;61048;52.162;4.516;2022-11-13T11:25:38;16.90;66.80
72905;DHT22;61048;52.162;4.516;2022-11-13T11:28:11;16.90;66.00
72905;DHT22;61048;52.162;4.516;2022-11-13T11:30:45;16.90;67.30
72905;DHT22;61048;52.162;4.516;2022-11-13T11:33:29;16.90;66.90
72905;DHT22;61048;52.162;4.516;2022-11-13T11:36:03;16.90;65.20
72905;DHT22;61048;52.162;4.516;2022-11-13T11:38:39;16.80;65.80
72905;DHT22;61048;52.162;4.516;2022-11-13T11:41:11;16.80;65.40
72905;DHT22;61048;52.162;4.516;2022-11-13T11:43:42;16.80;64.80
72905;DHT22;61048;52.162;4.516;2022-11-13T11:46:10;16.70;63.60
72905;DHT22;61048;52.162;4.516;2022-11-13T11:48:38;16.70;64.60
72905;DHT22;61048;52.162;4.516;2022-11-13T11:51:12;16.70;64.10
72905;DHT22;61048;52.162;4.516;2022-11-13T11:53:51;16.80;67.60
72905;DHT22;61048;52.162;4.516;2022-11-13T11:56:25;16.80;66.90
72905;DHT22;61048;52.162;4.516;2022-11-13T11:59:15;16.80;65.50
72905;DHT22;61048;52.162;4.516;2022-11-13T12:05:00;16.70;65.70
72905;DHT22;61048;52.162;4.516;2022-11-13T12:07:34;16.70;65.00
72905;DHT22;61048;52.162;4.516;2022-11-13T12:10:16;16.60;65.30
72905;DHT22;61048;52.162;4.516;2022-11-13T12:12:58;16.70;65.80
72905;DHT22;61048;52.162;4.516;2022-11-13T12:15:33;16.70;65.50
72905;DHT22;61048;52.162;4.516;2022-11-13T12:18:08;16.70;65.00
72905;DHT22;61048;52.162;4.516;2022-11-13T12:20:42;16.70;66.30
72905;DHT22;61048;52.162;4.516;2022-11-13T12:23:27;16.80;67.00
72905;DHT22;61048;52.162;4.516;2022-11-13T12:26:01;17.00;69.20
72905;DHT22;61048;52.162;4.516;2022-11-13T12:28:36;17.00;69.00
72905;DHT22;61048;52.162;4.516;2022-11-13T12:31:12;17.10;68.90
72905;DHT22;61048;52.162;4.516;2022-11-13T12:33:45;17.20;67.50
72905;DHT22;61048;52.162;4.516;2022-11-13T12:36:13;17.20;68.80
72905;DHT22;61048;52.162;4.516;2022-11-13T12:38:46;17.20;68.20
72905;DHT22;61048;52.162;4.516;2022-11-13T12:41:23;17.20;68.00
72905;DHT22;61048;52.162;4.516;2022-11-13T12:44:12;17.20;67.20
72905;DHT22;61048;52.162;4.516;2022-11-13T12:46:42;17.30;68.10
72905;DHT22;61048;52.162;4.516;2022-11-13T12:49:27;17.30;66.40
72905;DHT22;61048;52.162;4.516;2022-11-13T12:51:55;17.30;67.80
72905;DHT22;61048;52.162;4.516;2022-11-13T12:54:27;17.30;67.70
72905;DHT22;61048;52.162;4.516;2022-11-13T12:57:16;17.30;67.40
72905;DHT22;61048;52.162;4.516;2022-11-13T12:59:46;17.30;67.10
72905;DHT22;61048;52.162;4.516;2022-11-13T13:02:29;17.30;67.20
72905;DHT22;61048;52.162;4.516;2022-11-13T13:05:12;17.40;67.00
72905;DHT22;61048;52.162;4.516;2022-11-13T13:08:07;17.40;66.30
72905;DHT22;61048;52.162;4.516;2022-11-13T13:10:47;17.40;67.00
72905;DHT22;61048;52.162;4.516;2022-11-13T13:13:23;17.40;66.40
72905;DHT22;61048;52.162;4.516;2022-11-13T13:15:55;17.40;66.50
72905;DHT22;61048;52.162;4.516;2022-11-13T13:18:28;17.40;66.70
72905;DHT22;61048;52.162;4.516;2022-11-13T13:21:02;17.40;66.50
72905;DHT22;61048;52.162;4.516;2022-11-13T13:23:32;17.40;66.40
72905;DHT22;61048;52.162;4.516;2022-11-13T13:26:16;17.40;64.20
72905;DHT22;61048;52.162;4.516;2022-11-13T13:28:49;17.40;64.60
72905;DHT22;61048;52.162;4.516;2022-11-13T13:31:30;17.40;66.00
72905;DHT22;61048;52.162;4.516;2022-11-13T13:34:13;17.40;65.70
72905;DHT22;61048;52.162;4.516;2022-11-13T13:36:49;17.40;65.40
72905;DHT22;61048;52.162;4.516;2022-11-13T13:39:28;17.40;65.20
72905;DHT22;61048;52.162;4.516;2022-11-13T13:42:23;17.40;65.60
72905;DHT22;61048;52.162;4.516;2022-11-13T13:45:04;17.40;65.60
72905;DHT22;61048;52.162;4.516;2022-11-13T13:47:36;17.40;64.30
72905;DHT22;61048;52.162;4.516;2022-11-13T13:50:05;17.30;64.10
72905;DHT22;61048;52.162;4.516;2022-11-13T13:52:34;17.40;65.10
72905;DHT22;61048;52.162;4.516;2022-11-13T13:55:03;17.40;65.20
72905;DHT22;61048;52.162;4.516;2022-11-13T13:57:31;17.40;64.80
72905;DHT22;61048;52.162;4.516;2022-11-13T14:00:00;17.40;65.30
72905;DHT22;61048;52.162;4.516;2022-11-13T14:02:27;17.50;65.20
72905;DHT22;61048;52.162;4.516;2022-11-13T14:04:54;17.50;65.40
72905;DHT22;61048;52.162;4.516;2022-11-13T14:07:23;17.50;65.40
72905;DHT22;61048;52.162;4.516;2022-11-13T14:10:07;17.50;65.20
72905;DHT22;61048;52.162;4.516;2022-11-13T14:12:34;17.50;63.90
72905;DHT22;61048;52.162;4.516;2022-11-13T14:15:13;17.50;65.50
72905;DHT22;61048;52.162;4.516;2022-11-13T14:17:41;17.50;65.40
72905;DHT22;61048;52.162;4.516;2022-11-13T14:20:11;17.50;65.80
72905;DHT22;61048;52.162;4.516;2022-11-13T14:22:38;17.50;65.50
72905;DHT22;61048;52.162;4.516;2022-11-13T14:25:19;17.50;65.70
72905;DHT22;61048;52.162;4.516;2022-11-13T14:27:47;17.50;65.40
72905;DHT22;61048;52.162;4.516;2022-11-13T14:30:24;17.50;65.50
72905;DHT22;61048;52.162;4.516;2022-11-13T14:32:51;17.50;65.10
72905;DHT22;61048;52.162;4.516;2022-11-13T14:35:20;17.50;65.30
72905;DHT22;61048;52.162;4.516;2022-11-13T14:37:48;17.50;64.40
72905;DHT22;61048;52.162;4.516;2022-11-13T14:40:20;17.50;62.70
72905;DHT22;61048;52.162;4.516;2022-11-13T14:42:51;17.40;64.20
72905;DHT22;61048;52.162;4.516;2022-11-13T14:45:20;17.40;64.90
72905;DHT22;61048;52.162;4.516;2022-11-13T14:47:59;17.50;65.70
72905;DHT22;61048;52.162;4.516;2022-11-13T14:50:28;17.60;65.50
72905;DHT22;61048;52.162;4.516;2022-11-13T14:53:02;17.60;65.60
72905;DHT22;61048;52.162;4.516;2022-11-13T14:55:31;17.60;65.80
72905;DHT22;61048;52.162;4.516;2022-11-13T14:57:59;17.60;65.80
72905;DHT22;61048;52.162;4.516;2022-11-13T15:00:29;17.60;66.00
72905;DHT22;61048;52.162;4.516;2022-11-13T15:03:00;17.60;65.50
72905;DHT22;61048;52.162;4.516;2022-11-13T15:05:28;17.60;65.90
72905;DHT22;61048;52.162;4.516;2022-11-13T15:07:55;17.60;66.20
72905;DHT22;61048;52.162;4.516;2022-11-13T15:10:24;17.60;65.40
72905;DHT22;61048;52.162;4.516;2022-11-13T15:12:52;17.60;64.70
72905;DHT22;61048;52.162;4.516;2022-11-13T15:15:22;17.60;64.70
72905;DHT22;61048;52.162;4.516;2022-11-13T15:17:51;17.50;64.80
72905;DHT22;61048;52.162;4.516;2022-11-13T15:20:22;17.50;65.20
72905;DHT22;61048;52.162;4.516;2022-11-13T15:22:50;17.60;65.60
72905;DHT22;61048;52.162;4.516;2022-11-13T15:25:19;17.60;65.90
72905;DHT22;61048;52.162;4.516;2022-11-13T15:27:46;17.50;66.30
72905;DHT22;61048;52.162;4.516;2022-11-13T15:30:14;17.50;66.30
72905;DHT22;61048;52.162;4.516;2022-11-13T15:32:41;17.60;66.70
72905;DHT22;61048;52.162;4.516;2022-11-13T15:35:13;17.60;66.50
72905;DHT22;61048;52.162;4.516;2022-11-13T15:37:41;17.60;67.30
72905;DHT22;61048;52.162;4.516;2022-11-13T15:40:11;17.70;66.80
72905;DHT22;61048;52.162;4.516;2022-11-13T15:42:38;17.70;66.50
72905;DHT22;61048;52.162;4.516;2022-11-13T15:45:05;17.80;67.60
72905;DHT22;61048;52.162;4.516;2022-11-13T15:47:34;17.80;66.30
72905;DHT22;61048;52.162;4.516;2022-11-13T15:50:03;17.80;66.20